This is the latest recevied weather packets stored in our database for station/object KY0TEQ-13. If no packets are shown the sender has not sent any weather packets the latest 10 day(s).
| Time | Temp. | Humidity | Pressure | Rain* | Wind** | Luminosity | Snow |
|---|---|---|---|---|---|---|---|
| 1777811532 | 2.22° C | 51% | 1307.8 hPa | 0 mm | - | 15 W/m² | - |
| 1777811228 | 1.67° C | 52% | 1307.8 hPa | 0 mm | - | 11 W/m² | - |
| 1777810925 | 1.67° C | 52% | 1307.7 hPa | 0 mm | - | 7 W/m² | - |
| 1777810621 | 1.67° C | 52% | 1307.6 hPa | 0 mm | - | 4 W/m² | - |
| 1777810319 | 0.56° C | 54% | 1307.7 hPa | 0 mm | - | 2 W/m² | - |
| 1777810014 | 1.11° C | 52% | 1307.7 hPa | 0 mm | - | 1 W/m² | - |
| 1777809713 | 1.67° C | 50% | 1307.7 hPa | 0 mm | - | 0 W/m² | - |
| 1777809410 | 1.11° C | 50% | 1307.7 hPa | 0 mm | - | 0 W/m² | - |
| 1777809108 | 1.11° C | 51% | 1307.8 hPa | 0 mm | - | 0 W/m² | - |
| 1777808805 | 0.56° C | 52% | 1307.7 hPa | 0 mm | - | 0 W/m² | - |
| 1777808502 | 0.56° C | 53% | 1307.7 hPa | 0 mm | - | 0 W/m² | - |
| 1777808199 | 1.11° C | 51% | 1307.7 hPa | 0 mm | - | 0 W/m² | - |
| 1777807898 | 1.11° C | 53% | 1307.8 hPa | 0 mm | - | 0 W/m² | - |
| 1777807596 | 2.22° C | 48% | 1307.7 hPa | 0 mm | - | 0 W/m² | - |
| 1777807292 | 2.78° C | 47% | 1307.8 hPa | 0 mm | - | 0 W/m² | - |
| 1777806988 | 2.78° C | 47% | 1307.8 hPa | 0 mm | - | 0 W/m² | - |
| 1777806685 | 2.22° C | 48% | 1307.7 hPa | 0 mm | - | 0 W/m² | - |
| 1777806381 | 1.11° C | 53% | 1307.4 hPa | 0 mm | - | 0 W/m² | - |
| 1777806078 | 2.22° C | 47% | 1307.6 hPa | 0 mm | - | 0 W/m² | - |
| 1777805774 | 1.67° C | 50% | 1307.7 hPa | 0 mm | - | 0 W/m² | - |
| 1777805472 | 1.67° C | 51% | 1307.8 hPa | 0 mm | - | 0 W/m² | - |
| 1777805170 | 2.78° C | 48% | 1307.8 hPa | 0 mm | - | 0 W/m² | - |
| 1777804868 | 2.22° C | 48% | 1307.7 hPa | 0 mm | - | 0 W/m² | - |
| 1777804565 | 1.67° C | 49% | 1307.7 hPa | 0 mm | - | 0 W/m² | - |
| 1777804262 | 1.67° C | 50% | 1307.7 hPa | 0 mm | - | 0 W/m² | - |
* Rain latest hour (hover to see other rain measurements)
** Current wind speed in m/s (hover to see current wind gust speed)